createdAt,value
2023-01-29T00:01:48.227Z,102262.66
2023-01-29T00:04:14.764Z,102253.84
2023-01-29T00:06:41.303Z,102249.59
2023-01-29T00:09:07.788Z,102214.78
2023-01-29T00:11:35.143Z,102246.50
2023-01-29T00:14:02.015Z,102238.81
2023-01-29T00:16:28.623Z,102199.78
2023-01-29T00:18:55.355Z,102206.53
2023-01-29T00:21:22.695Z,102230.81
2023-01-29T00:23:50.326Z,102231.44
2023-01-29T00:26:17.280Z,102230.06
2023-01-29T00:28:44.056Z,102237.66
2023-01-29T00:31:17.835Z,102232.41
2023-01-29T00:33:44.578Z,102234.91
2023-01-29T00:36:13.273Z,102228.16
2023-01-29T00:38:39.976Z,102223.97
2023-01-29T00:41:30.274Z,102193.56
2023-01-29T00:44:15.371Z,102230.66
2023-01-29T00:46:41.865Z,102225.53
2023-01-29T00:49:08.962Z,102207.44
2023-01-29T00:51:36.038Z,102231.91
2023-01-29T00:54:06.692Z,102233.38
2023-01-29T00:56:34.980Z,102237.63
2023-01-29T00:59:01.529Z,102234.28
2023-01-29T01:01:47.030Z,102238.03
2023-01-29T01:04:13.981Z,102230.19
2023-01-29T01:06:41.775Z,102238.16
2023-01-29T01:09:27.897Z,102232.84
2023-01-29T01:11:54.644Z,102245.75
2023-01-29T01:14:21.287Z,102242.16
2023-01-29T01:16:48.905Z,102241.13
2023-01-29T01:19:15.948Z,102236.81
2023-01-29T01:21:48.220Z,102238.47
2023-01-29T01:24:14.910Z,102195.81
2023-01-29T01:26:41.771Z,102230.97
2023-01-29T01:29:09.096Z,102179.16
2023-01-29T01:31:35.820Z,102217.91
2023-01-29T01:34:02.460Z,102191.94
2023-01-29T01:36:28.907Z,102201.31
2023-01-29T01:38:55.509Z,102189.41
2023-01-29T01:41:23.239Z,102189.16
2023-01-29T01:43:54.693Z,102187.09
2023-01-29T01:46:21.946Z,102180.84
2023-01-29T01:49:00.032Z,102185.31
2023-01-29T01:51:28.122Z,102186.91
2023-01-29T01:54:06.739Z,102172.53
2023-01-29T01:56:42.731Z,102180.06
2023-01-29T01:59:14.949Z,102187.72
2023-01-29T02:01:44.067Z,102163.50
2023-01-29T02:04:41.440Z,102191.81
2023-01-29T02:07:29.701Z,102189.06
2023-01-29T02:10:09.725Z,102202.16
2023-01-29T02:12:37.320Z,102205.84
2023-01-29T02:15:05.073Z,102198.78
2023-01-29T02:17:31.941Z,102198.59
2023-01-29T02:20:24.243Z,102200.66
2023-01-29T02:23:09.161Z,102198.97
2023-01-29T02:26:10.803Z,102207.66
2023-01-29T02:28:40.866Z,102220.50
2023-01-29T02:31:30.170Z,102213.69
2023-01-29T02:34:24.572Z,102215.63
2023-01-29T02:36:57.481Z,102199.78
2023-01-29T02:39:51.881Z,102210.06
2023-01-29T02:42:35.799Z,102174.38
2023-01-29T02:45:24.117Z,102210.88
2023-01-29T02:48:02.082Z,102222.97
2023-01-29T02:50:37.731Z,102222.13
2023-01-29T02:53:15.325Z,102225.41
2023-01-29T02:55:49.474Z,102224.19
2023-01-29T02:58:27.737Z,102227.34
2023-01-29T03:00:56.611Z,102225.72
2023-01-29T03:03:31.889Z,102209.13
2023-01-29T03:06:06.256Z,102219.31
2023-01-29T03:08:56.518Z,102216.47
2023-01-29T03:11:23.639Z,102226.63
2023-01-29T03:13:52.696Z,102216.00
2023-01-29T03:16:27.099Z,102214.09
2023-01-29T03:19:29.187Z,102194.38
2023-01-29T03:22:00.546Z,102196.13
2023-01-29T03:24:55.013Z,102203.03
2023-01-29T03:27:43.012Z,102162.31
2023-01-29T03:30:30.561Z,102202.94
2023-01-29T03:32:59.423Z,102156.06
2023-01-29T03:35:36.762Z,102207.34
2023-01-29T03:38:05.448Z,102204.78
2023-01-29T03:40:39.414Z,102207.25
2023-01-29T03:43:11.496Z,102209.00
2023-01-29T03:45:47.293Z,102200.66
2023-01-29T03:48:29.077Z,102183.91
2023-01-29T03:50:55.621Z,102201.16
2023-01-29T03:53:27.986Z,102186.59
2023-01-29T03:56:07.144Z,102191.53
2023-01-29T03:58:42.532Z,102186.06
2023-01-29T04:01:18.688Z,102175.44
2023-01-29T04:03:51.250Z,102196.53
2023-01-29T04:06:24.329Z,102169.19
2023-01-29T04:09:03.377Z,102180.06
2023-01-29T04:11:31.641Z,102148.63
2023-01-29T04:13:58.406Z,102177.25
2023-01-29T04:16:29.543Z,102163.22
2023-01-29T04:18:56.157Z,102178.03
2023-01-29T04:21:22.772Z,102159.16
2023-01-29T04:23:49.491Z,102168.50
2023-01-29T04:26:24.738Z,102169.75
2023-01-29T04:28:59.579Z,102170.34
2023-01-29T04:31:33.757Z,102148.50
2023-01-29T04:34:23.510Z,102162.44
2023-01-29T04:37:10.548Z,102141.22
2023-01-29T04:40:09.753Z,102146.28
2023-01-29T04:42:50.959Z,102116.78
2023-01-29T04:45:49.115Z,102151.38
2023-01-29T04:48:30.106Z,102139.03
2023-01-29T04:51:02.691Z,102093.44
2023-01-29T04:53:37.939Z,102132.34
2023-01-29T04:56:14.770Z,102119.91
2023-01-29T04:59:04.982Z,102098.13
2023-01-29T05:01:33.389Z,102109.22
2023-01-29T05:04:03.537Z,102135.75
2023-01-29T05:06:30.810Z,102110.88
2023-01-29T05:08:57.593Z,102109.16
2023-01-29T05:11:25.292Z,102072.53
2023-01-29T05:13:51.910Z,102069.25
2023-01-29T05:16:42.100Z,102080.47
2023-01-29T05:19:13.436Z,102098.09
2023-01-29T05:21:41.241Z,102097.78
2023-01-29T05:24:22.594Z,102052.19
2023-01-29T05:27:09.469Z,102084.47
2023-01-29T05:29:36.043Z,102085.63
2023-01-29T05:32:03.954Z,102049.31
2023-01-29T05:34:30.712Z,102073.00
2023-01-29T05:36:57.207Z,102078.16
2023-01-29T05:39:23.851Z,102062.69
2023-01-29T05:41:50.324Z,102101.88
2023-01-29T05:44:17.144Z,102074.00
2023-01-29T05:46:44.674Z,102101.13
2023-01-29T05:49:11.135Z,102110.44
2023-01-29T05:51:37.717Z,102104.59
2023-01-29T05:54:04.859Z,102113.47
2023-01-29T05:56:34.063Z,102117.91
2023-01-29T05:59:00.929Z,102116.81
2023-01-29T06:01:27.525Z,102115.53
2023-01-29T06:03:54.032Z,102126.47
2023-01-29T06:06:20.534Z,102134.00
2023-01-29T06:08:47.580Z,102132.34
2023-01-29T06:11:14.926Z,102132.88
2023-01-29T06:13:41.419Z,102140.03
2023-01-29T06:16:09.052Z,102099.41
2023-01-29T06:18:36.346Z,102136.88
2023-01-29T06:21:05.136Z,102129.56
2023-01-29T06:23:32.001Z,102136.38
2023-01-29T06:26:03.342Z,102113.16
2023-01-29T06:28:29.949Z,102136.59
2023-01-29T06:31:21.062Z,102139.53
2023-01-29T06:33:48.267Z,102130.53
2023-01-29T06:36:14.715Z,102123.19
2023-01-29T06:38:41.264Z,102119.97
2023-01-29T06:41:10.712Z,102137.81
2023-01-29T06:43:38.146Z,102140.25
2023-01-29T06:46:07.466Z,102134.19
2023-01-29T06:48:34.090Z,102130.56
2023-01-29T06:51:05.338Z,102132.00
2023-01-29T06:53:34.014Z,102139.16
2023-01-29T06:56:00.604Z,102128.63
2023-01-29T06:58:27.223Z,102141.84
2023-01-29T07:00:53.748Z,102101.53
2023-01-29T07:03:20.249Z,102129.84
2023-01-29T07:05:51.959Z,102134.63
2023-01-29T07:08:19.247Z,102137.84
2023-01-29T07:10:45.866Z,102093.88
2023-01-29T07:13:12.386Z,102132.75
2023-01-29T07:15:38.888Z,102121.94
2023-01-29T07:18:12.021Z,102128.16
2023-01-29T07:20:42.684Z,102133.94
2023-01-29T07:23:12.299Z,102123.91
2023-01-29T07:25:39.624Z,102123.03
2023-01-29T07:28:06.311Z,102131.56
2023-01-29T07:30:33.408Z,102124.13
2023-01-29T07:33:08.178Z,102087.81
2023-01-29T07:35:42.601Z,102117.50
2023-01-29T07:38:10.142Z,102094.19
2023-01-29T07:40:36.926Z,102079.47
2023-01-29T07:43:05.559Z,102120.06
2023-01-29T07:45:34.243Z,102081.13
2023-01-29T07:48:00.869Z,102128.28
2023-01-29T07:50:27.681Z,102123.78
2023-01-29T07:52:54.806Z,102071.50
2023-01-29T07:55:21.425Z,102124.47
2023-01-29T07:57:48.077Z,102100.72
2023-01-29T08:00:15.358Z,102107.56
2023-01-29T08:02:42.140Z,102106.38
2023-01-29T08:05:09.351Z,102089.78
2023-01-29T08:07:35.785Z,102087.19
2023-01-29T08:10:02.304Z,102083.94
2023-01-29T08:12:28.768Z,102098.16
2023-01-29T08:14:55.287Z,102094.13
2023-01-29T08:17:22.036Z,102088.38
2023-01-29T08:19:48.509Z,102103.88
2023-01-29T08:22:17.780Z,102101.94
2023-01-29T08:24:53.781Z,102106.06
2023-01-29T08:27:26.543Z,102111.00
2023-01-29T08:29:53.021Z,102099.19
2023-01-29T08:32:19.542Z,102104.81
2023-01-29T08:34:46.305Z,102108.81
2023-01-29T08:37:12.862Z,102106.75
2023-01-29T08:39:39.312Z,102049.06
2023-01-29T08:42:06.012Z,102087.38
2023-01-29T08:44:32.892Z,102073.97
2023-01-29T08:46:59.404Z,102063.78
2023-01-29T08:49:25.966Z,102032.72
2023-01-29T08:51:53.788Z,102063.78
2023-01-29T08:54:20.252Z,102068.31
2023-01-29T08:56:46.725Z,102023.88
2023-01-29T08:59:13.412Z,102042.00
2023-01-29T09:01:39.900Z,102065.13
2023-01-29T09:04:06.434Z,102059.63
2023-01-29T09:06:33.306Z,102053.19
2023-01-29T09:08:59.935Z,102011.53
2023-01-29T09:11:26.592Z,102046.03
2023-01-29T09:13:53.174Z,102019.84
2023-01-29T09:16:19.718Z,102051.16
2023-01-29T09:18:46.394Z,102042.91
2023-01-29T09:21:12.862Z,102045.53
2023-01-29T09:23:39.374Z,102040.25
2023-01-29T09:26:07.714Z,102014.81
2023-01-29T09:28:34.875Z,102035.44
2023-01-29T09:31:02.675Z,102039.16
2023-01-29T09:33:30.853Z,102049.41
2023-01-29T09:35:57.400Z,102034.69
2023-01-29T09:38:23.934Z,102036.31
2023-01-29T09:41:16.651Z,102028.19
2023-01-29T09:43:48.269Z,102034.69
2023-01-29T09:46:22.599Z,102030.88
2023-01-29T09:48:54.223Z,102034.78
2023-01-29T09:51:28.665Z,102024.84
2023-01-29T09:54:04.735Z,102019.56
2023-01-29T09:56:32.080Z,102018.13
2023-01-29T09:59:01.564Z,102023.78
2023-01-29T10:01:34.613Z,102022.28
2023-01-29T10:04:13.697Z,102014.66
2023-01-29T10:06:55.379Z,102022.03
2023-01-29T10:09:59.074Z,102034.59
2023-01-29T10:12:25.515Z,102036.41
2023-01-29T10:14:58.500Z,101995.34
2023-01-29T10:17:50.595Z,102041.09
2023-01-29T10:20:54.954Z,102040.94
2023-01-29T10:23:33.428Z,102032.44
2023-01-29T10:26:00.962Z,102028.19
2023-01-29T10:28:50.049Z,102029.91
2023-01-29T10:31:21.112Z,102026.50
2023-01-29T10:34:03.308Z,102026.03
2023-01-29T10:36:45.466Z,102015.56
2023-01-29T10:39:19.613Z,101999.63
2023-01-29T10:41:49.610Z,102014.53
2023-01-29T10:44:39.462Z,101998.53
2023-01-29T10:47:21.778Z,101997.44
2023-01-29T10:50:00.851Z,101984.88
2023-01-29T10:53:09.789Z,101982.00
2023-01-29T10:55:54.494Z,101978.94
2023-01-29T10:58:48.927Z,101981.13
2023-01-29T11:01:15.811Z,101973.69
2023-01-29T11:03:42.544Z,101976.28
2023-01-29T11:06:18.177Z,101960.00
2023-01-29T11:09:20.268Z,101970.66
2023-01-29T11:11:50.951Z,101969.50
2023-01-29T11:14:29.148Z,101970.16
2023-01-29T11:16:55.827Z,101961.34
2023-01-29T11:19:42.957Z,101966.03
2023-01-29T11:22:26.338Z,101952.44
2023-01-29T11:25:08.246Z,101953.94
2023-01-29T11:27:45.003Z,101953.41
2023-01-29T11:30:36.096Z,101926.59
2023-01-29T11:33:06.299Z,101923.97
2023-01-29T11:35:33.354Z,101919.09
2023-01-29T11:38:27.150Z,101879.09
2023-01-29T11:41:05.399Z,101904.56
2023-01-29T11:43:33.078Z,101908.06
2023-01-29T11:46:05.455Z,101892.84
2023-01-29T11:48:48.035Z,101889.28
2023-01-29T11:51:23.573Z,101889.81
2023-01-29T11:53:52.935Z,101858.56
2023-01-29T11:56:24.685Z,101872.81
2023-01-29T11:58:52.160Z,101836.06
2023-01-29T12:01:37.219Z,101864.91
2023-01-29T12:04:11.627Z,101852.00
2023-01-29T12:06:42.571Z,101878.59
2023-01-29T12:09:17.348Z,101865.19
2023-01-29T12:11:43.989Z,101855.94
2023-01-29T12:14:36.883Z,101855.69
2023-01-29T12:17:05.019Z,101833.38
2023-01-29T12:19:38.744Z,101840.81
2023-01-29T12:22:22.501Z,101835.91
2023-01-29T12:25:18.224Z,101817.72
2023-01-29T12:27:59.939Z,101813.53
2023-01-29T12:30:31.749Z,101812.59
2023-01-29T12:33:09.387Z,101753.78
2023-01-29T12:35:38.257Z,101788.41
2023-01-29T12:38:22.757Z,101794.78
2023-01-29T12:41:10.279Z,101780.78
2023-01-29T12:44:04.933Z,101741.00
2023-01-29T12:46:34.759Z,101775.03
2023-01-29T12:49:03.584Z,101774.47
2023-01-29T12:51:35.730Z,101769.19
2023-01-29T12:54:07.039Z,101742.84
2023-01-29T12:56:47.121Z,101765.50
2023-01-29T12:59:31.928Z,101771.78
2023-01-29T13:02:39.532Z,101757.63
2023-01-29T13:05:18.089Z,101761.72
2023-01-29T13:07:49.990Z,101765.72
2023-01-29T13:10:20.430Z,101760.09
2023-01-29T13:12:58.875Z,101758.03
2023-01-29T13:15:36.312Z,101725.72
2023-01-29T13:18:33.635Z,101734.50
2023-01-29T13:21:01.144Z,101706.81
2023-01-29T13:23:41.901Z,101758.75
2023-01-29T13:26:08.828Z,101729.72
2023-01-29T13:28:36.376Z,101756.00
2023-01-29T13:31:11.177Z,101736.41
2023-01-29T13:33:38.381Z,101733.53
2023-01-29T13:36:05.533Z,101727.97
2023-01-29T13:38:33.340Z,101717.63
2023-01-29T13:41:04.802Z,101741.56
2023-01-29T13:43:37.654Z,101751.47
2023-01-29T13:46:10.627Z,101750.06
2023-01-29T13:48:42.355Z,101740.16
2023-01-29T13:51:17.676Z,101726.06
2023-01-29T13:53:55.880Z,101748.63
2023-01-29T13:56:30.056Z,101709.38
2023-01-29T13:58:57.713Z,101742.63
2023-01-29T14:01:49.188Z,101738.03
2023-01-29T14:04:18.797Z,101730.38
2023-01-29T14:06:48.088Z,101715.31
2023-01-29T14:09:37.893Z,101733.47
2023-01-29T14:12:24.655Z,101726.69
2023-01-29T14:15:02.938Z,101727.56
2023-01-29T14:17:29.620Z,101725.59
2023-01-29T14:20:03.261Z,101720.00
2023-01-29T14:22:30.830Z,101726.22
2023-01-29T14:25:01.226Z,101723.09
2023-01-29T14:27:28.213Z,101719.59
2023-01-29T14:30:02.893Z,101692.16
2023-01-29T14:32:29.685Z,101725.38
2023-01-29T14:35:02.215Z,101714.34
2023-01-29T14:37:38.809Z,101717.84
2023-01-29T14:40:11.320Z,101723.44
2023-01-29T14:42:45.515Z,101713.25
2023-01-29T14:45:32.233Z,101708.25
2023-01-29T14:48:26.175Z,101700.28
2023-01-29T14:50:54.328Z,101683.88
2023-01-29T14:53:23.347Z,101671.09
2023-01-29T14:56:15.757Z,101704.13
2023-01-29T14:58:49.215Z,101709.81
2023-01-29T15:01:37.270Z,101707.78
2023-01-29T15:04:16.196Z,101690.59
2023-01-29T15:06:46.697Z,101695.59
2023-01-29T15:09:36.685Z,101696.09
2023-01-29T15:12:19.178Z,101672.50
2023-01-29T15:15:08.140Z,101694.38
2023-01-29T15:17:41.827Z,101693.31
2023-01-29T15:20:41.621Z,101675.91
2023-01-29T15:23:27.148Z,101684.72
2023-01-29T15:25:56.374Z,101689.28
2023-01-29T15:28:23.363Z,101682.16
2023-01-29T15:30:55.984Z,101686.28
2023-01-29T15:33:22.745Z,101658.84
2023-01-29T15:35:51.633Z,101683.09
2023-01-29T15:38:22.481Z,101675.34
2023-01-29T15:40:56.635Z,101676.44
2023-01-29T15:43:27.058Z,101682.91
2023-01-29T15:46:01.972Z,101679.75
2023-01-29T15:48:40.696Z,101679.34
2023-01-29T15:51:08.651Z,101674.34
2023-01-29T15:53:38.554Z,101657.38
2023-01-29T15:56:11.367Z,101674.94
2023-01-29T15:58:38.367Z,101617.84
2023-01-29T16:01:05.476Z,101640.28
2023-01-29T16:03:33.610Z,101665.75
2023-01-29T16:06:00.680Z,101664.09
2023-01-29T16:08:28.018Z,101662.19
2023-01-29T16:10:59.429Z,101652.09
2023-01-29T16:13:31.253Z,101653.44
2023-01-29T16:16:04.420Z,101613.47
2023-01-29T16:18:31.260Z,101651.16
2023-01-29T16:21:00.855Z,101635.41
2023-01-29T16:23:35.491Z,101640.09
2023-01-29T16:26:06.075Z,101619.84
2023-01-29T16:28:32.808Z,101634.88
2023-01-29T16:31:02.677Z,101631.94
2023-01-29T16:33:34.834Z,101619.94
2023-01-29T16:36:05.507Z,101624.16
2023-01-29T16:38:33.737Z,101600.69
2023-01-29T16:41:08.477Z,101620.53
2023-01-29T16:43:41.970Z,101619.19
2023-01-29T16:46:48.836Z,101614.69
2023-01-29T16:49:30.899Z,101601.78
2023-01-29T16:52:16.563Z,101603.22
2023-01-29T16:54:43.501Z,101604.28
2023-01-29T16:57:29.894Z,101568.50
2023-01-29T16:59:58.082Z,101587.00
2023-01-29T17:02:29.474Z,101580.91
2023-01-29T17:05:00.757Z,101576.31
2023-01-29T17:07:27.608Z,101534.03
2023-01-29T17:09:56.395Z,101571.53
2023-01-29T17:12:25.470Z,101548.81
2023-01-29T17:15:00.593Z,101573.63
2023-01-29T17:17:32.490Z,101573.41
2023-01-29T17:20:11.958Z,101576.56
2023-01-29T17:22:38.533Z,101540.25
2023-01-29T17:25:05.602Z,101559.78
2023-01-29T17:27:32.075Z,101574.84
2023-01-29T17:29:58.902Z,101549.91
2023-01-29T17:32:44.049Z,101578.28
2023-01-29T17:35:14.256Z,101575.44
2023-01-29T17:37:41.042Z,101521.06
2023-01-29T17:40:43.151Z,101579.78
2023-01-29T17:43:11.736Z,101566.19
2023-01-29T17:45:39.424Z,101534.00
2023-01-29T17:48:13.371Z,101539.41
2023-01-29T17:50:40.556Z,101560.00
2023-01-29T17:53:07.232Z,101553.06
2023-01-29T17:55:33.763Z,101498.88
2023-01-29T17:58:00.337Z,101534.03
2023-01-29T18:00:27.047Z,101553.16
2023-01-29T18:02:54.318Z,101545.56
2023-01-29T18:05:21.052Z,101539.53
2023-01-29T18:07:47.992Z,101542.00
2023-01-29T18:10:19.785Z,101527.97
2023-01-29T18:12:46.583Z,101521.16
2023-01-29T18:15:13.396Z,101497.72
2023-01-29T18:17:40.675Z,101522.75
2023-01-29T18:20:21.112Z,101525.53
2023-01-29T18:22:47.995Z,101443.53
2023-01-29T18:25:15.393Z,101482.50
2023-01-29T18:27:42.089Z,101491.66
2023-01-29T18:30:09.838Z,101479.31
2023-01-29T18:32:36.377Z,101495.81
2023-01-29T18:35:03.519Z,101482.84
2023-01-29T18:37:30.055Z,101444.13
2023-01-29T18:39:56.606Z,101481.28
2023-01-29T18:42:23.212Z,101472.91
2023-01-29T18:44:49.889Z,101460.31
2023-01-29T18:47:16.555Z,101435.03
2023-01-29T18:49:43.117Z,101452.41
2023-01-29T18:52:10.094Z,101449.38
2023-01-29T18:54:36.951Z,101419.28
2023-01-29T18:57:13.360Z,101453.88
2023-01-29T18:59:41.222Z,101409.19
2023-01-29T19:02:08.087Z,101426.59
2023-01-29T19:04:34.626Z,101422.81
2023-01-29T19:07:01.198Z,101462.09
2023-01-29T19:09:27.712Z,101447.66
2023-01-29T19:11:54.332Z,101400.59
2023-01-29T19:14:21.072Z,101440.47
2023-01-29T19:16:47.766Z,101421.66
2023-01-29T19:19:14.283Z,101379.56
2023-01-29T19:21:40.963Z,101431.22
2023-01-29T19:24:10.069Z,101382.16
2023-01-29T19:26:36.848Z,101387.69
2023-01-29T19:29:03.783Z,101411.69
2023-01-29T19:31:31.958Z,101415.06
2023-01-29T19:33:58.776Z,101422.25
2023-01-29T19:36:25.700Z,101395.91
2023-01-29T19:38:52.245Z,101407.19
2023-01-29T19:41:18.843Z,101397.88
2023-01-29T19:43:46.337Z,101394.63
2023-01-29T19:46:12.952Z,101378.47
2023-01-29T19:48:39.695Z,101378.22
2023-01-29T19:51:08.580Z,101386.00
2023-01-29T19:53:36.654Z,101358.19
2023-01-29T19:56:04.566Z,101378.19
2023-01-29T19:58:32.153Z,101377.00
2023-01-29T20:01:05.583Z,101365.47
2023-01-29T20:03:32.512Z,101370.78
2023-01-29T20:06:03.973Z,101357.34
2023-01-29T20:08:31.066Z,101350.31
2023-01-29T20:10:57.546Z,101320.00
2023-01-29T20:13:24.546Z,101314.97
2023-01-29T20:15:52.347Z,101325.97
2023-01-29T20:18:23.235Z,101318.09
2023-01-29T20:20:50.602Z,101316.19
2023-01-29T20:23:31.736Z,101314.75
2023-01-29T20:26:03.928Z,101306.09
2023-01-29T20:28:30.489Z,101278.91
2023-01-29T20:30:58.209Z,101309.41
2023-01-29T20:33:25.805Z,101296.50
2023-01-29T20:36:01.089Z,101283.13
2023-01-29T20:38:30.509Z,101228.13
2023-01-29T20:41:17.867Z,101273.06
2023-01-29T20:43:45.543Z,101272.66
2023-01-29T20:46:12.528Z,101276.50
2023-01-29T20:48:39.119Z,101269.53
2023-01-29T20:51:07.867Z,101275.78
2023-01-29T20:53:34.892Z,101233.63
2023-01-29T20:56:04.120Z,101256.38
2023-01-29T20:58:31.398Z,101248.41
2023-01-29T21:00:58.070Z,101238.41
2023-01-29T21:03:24.594Z,101252.88
2023-01-29T21:05:52.206Z,101173.59
2023-01-29T21:08:18.782Z,101242.88
2023-01-29T21:10:45.732Z,101244.84
2023-01-29T21:13:12.481Z,101258.25
2023-01-29T21:15:39.008Z,101245.06
2023-01-29T21:18:06.597Z,101242.84
2023-01-29T21:20:33.076Z,101237.16
2023-01-29T21:22:59.571Z,101261.97
2023-01-29T21:25:26.052Z,101205.38
2023-01-29T21:27:52.596Z,101255.34
2023-01-29T21:30:19.560Z,101249.59
2023-01-29T21:32:46.402Z,101180.16
2023-01-29T21:35:13.000Z,101221.91
2023-01-29T21:37:39.485Z,101224.81
2023-01-29T21:40:07.155Z,101231.66
2023-01-29T21:42:53.086Z,101217.53
2023-01-29T21:45:19.889Z,101225.94
2023-01-29T21:47:46.687Z,101234.22
2023-01-29T21:50:14.088Z,101230.25
2023-01-29T21:52:40.537Z,101236.28
2023-01-29T21:55:07.432Z,101248.06
2023-01-29T21:57:34.001Z,101232.91
2023-01-29T22:00:00.969Z,101223.69
2023-01-29T22:02:30.776Z,101253.25
2023-01-29T22:05:16.437Z,101241.53
2023-01-29T22:07:44.518Z,101236.34
2023-01-29T22:10:12.154Z,101249.84
2023-01-29T22:12:39.095Z,101223.91
2023-01-29T22:15:06.788Z,101226.69
2023-01-29T22:17:33.946Z,101241.84
2023-01-29T22:20:00.603Z,101224.81
2023-01-29T22:22:27.201Z,101245.28
2023-01-29T22:24:55.098Z,101240.50
2023-01-29T22:27:21.623Z,101236.09
2023-01-29T22:29:48.139Z,101235.59
2023-01-29T22:32:14.734Z,101243.84
2023-01-29T22:34:41.443Z,101250.50
2023-01-29T22:37:08.639Z,101243.06
2023-01-29T22:39:35.198Z,101225.78
2023-01-29T22:42:01.721Z,101211.59
2023-01-29T22:44:28.229Z,101220.06
2023-01-29T22:46:54.845Z,101219.19
2023-01-29T22:49:21.369Z,101199.28
2023-01-29T22:51:48.134Z,101203.63
2023-01-29T22:54:15.504Z,101197.91
2023-01-29T22:56:42.030Z,101140.75
2023-01-29T22:59:10.136Z,101134.09
2023-01-29T23:01:36.785Z,101123.72
2023-01-29T23:04:03.434Z,101141.16
2023-01-29T23:06:29.955Z,101097.00
2023-01-29T23:08:57.491Z,101109.81
2023-01-29T23:11:24.059Z,101115.31
2023-01-29T23:13:52.910Z,101057.38
2023-01-29T23:16:22.319Z,101080.06
2023-01-29T23:18:51.006Z,101060.44
2023-01-29T23:21:17.993Z,101005.81
2023-01-29T23:23:45.239Z,100979.63
2023-01-29T23:26:31.636Z,100980.97
2023-01-29T23:28:59.428Z,100999.16
2023-01-29T23:31:26.834Z,101020.00
2023-01-29T23:33:53.392Z,101034.97
2023-01-29T23:36:19.864Z,101069.88
2023-01-29T23:38:46.674Z,101020.72
2023-01-29T23:41:13.223Z,101044.56
2023-01-29T23:43:39.836Z,101054.63
2023-01-29T23:46:06.321Z,100992.00
2023-01-29T23:48:32.857Z,101034.34
2023-01-29T23:50:59.513Z,101035.25
2023-01-29T23:53:26.097Z,101015.19
2023-01-29T23:55:59.881Z,100979.69
2023-01-29T23:58:27.272Z,101001.03
